Shostka, Ukraine
Current Conditions -  °F | °C
As of 4:00 PM on Friday 24 Oct 2014 (Local Time) from UUBP Reporting Station
Clear Clear  
Wind Chill: 26°   Ceiling: Unl
Heat Index: 32°   Visibility: 6mi
Dew Point: 18°   Wind: 7mph
Humidity: 55%   Direction: 20°NNE
Pressure: 30.56"   Gusts: 13mph
Location:  51.87°N, 33.48°E
Report Text: UUBP 241300Z 02003G06MPS CAVOK M00/M08 Q1035 NOSIG RMK QFE75834CLRD70
Loading
Personal Weather Stations






























Interactive Weather Map
Tropical Storm Tracking
New forecast layout! Learn more

10-Day Weather Forecast

Advertisements
Track Severe Weather on mobile